sensor_id;sensor_type;location;lat;lon;timestamp;pressure;altitude;pressure_sealevel;temperature;humidity
72548;BME280;60570;50.848;6.776;2023-04-09T00:00:21;101413.75;;;10.36;68.83
72548;BME280;60570;50.848;6.776;2023-04-09T00:01:21;101410.66;;;10.38;68.54
72548;BME280;60570;50.848;6.776;2023-04-09T00:02:23;101409.34;;;10.35;68.98
72548;BME280;60570;50.848;6.776;2023-04-09T00:03:25;101408.19;;;10.36;68.57
72548;BME280;60570;50.848;6.776;2023-04-09T00:04:27;101402.94;;;10.35;68.78
72548;BME280;60570;50.848;6.776;2023-04-09T00:05:27;101414.06;;;10.35;68.59
72548;BME280;60570;50.848;6.776;2023-04-09T00:06:29;101414.06;;;10.35;68.91
72548;BME280;60570;50.848;6.776;2023-04-09T00:07:30;101417.66;;;10.35;68.80
72548;BME280;60570;50.848;6.776;2023-04-09T00:08:31;101416.00;;;10.34;68.60
72548;BME280;60570;50.848;6.776;2023-04-09T00:09:32;101418.78;;;10.34;68.58
72548;BME280;60570;50.848;6.776;2023-04-09T00:10:35;101413.22;;;10.34;68.84
72548;BME280;60570;50.848;6.776;2023-04-09T00:11:36;101411.59;;;10.33;68.88
72548;BME280;60570;50.848;6.776;2023-04-09T00:12:37;101412.41;;;10.34;68.63
72548;BME280;60570;50.848;6.776;2023-04-09T00:13:38;101417.16;;;10.33;68.74
72548;BME280;60570;50.848;6.776;2023-04-09T00:14:39;101419.09;;;10.33;68.71
72548;BME280;60570;50.848;6.776;2023-04-09T00:15:40;101415.50;;;10.32;69.06
72548;BME280;60570;50.848;6.776;2023-04-09T00:16:41;101418.28;;;10.32;68.94
72548;BME280;60570;50.848;6.776;2023-04-09T00:17:42;101415.50;;;10.32;68.81
72548;BME280;60570;50.848;6.776;2023-04-09T00:18:44;101413.56;;;10.33;68.63
72548;BME280;60570;50.848;6.776;2023-04-09T00:19:45;101415.81;;;10.31;68.86
72548;BME280;60570;50.848;6.776;2023-04-09T00:20:47;101416.66;;;10.31;69.19
72548;BME280;60570;50.848;6.776;2023-04-09T00:21:47;101414.66;;;10.32;68.67
72548;BME280;60570;50.848;6.776;2023-04-09T00:22:48;101415.81;;;10.31;68.59
72548;BME280;60570;50.848;6.776;2023-04-09T00:23:50;101416.66;;;10.31;68.88
72548;BME280;60570;50.848;6.776;2023-04-09T00:24:52;101419.41;;;10.31;68.65
72548;BME280;60570;50.848;6.776;2023-04-09T00:25:52;101413.88;;;10.31;68.76
72548;BME280;60570;50.848;6.776;2023-04-09T00:26:54;101416.66;;;10.31;68.88
72548;BME280;60570;50.848;6.776;2023-04-09T00:27:54;101411.09;;;10.31;68.65
72548;BME280;60570;50.848;6.776;2023-04-09T00:28:56;101411.09;;;10.31;68.66
72548;BME280;60570;50.848;6.776;2023-04-09T00:29:57;101408.63;;;10.30;68.84
72548;BME280;60570;50.848;6.776;2023-04-09T00:30:58;101416.66;;;10.31;68.88
72548;BME280;60570;50.848;6.776;2023-04-09T00:31:59;101405.03;;;10.29;68.90
72548;BME280;60570;50.848;6.776;2023-04-09T00:33:00;101414.19;;;10.30;68.60
72548;BME280;60570;50.848;6.776;2023-04-09T00:34:02;101410.56;;;10.29;68.90
72548;BME280;60570;50.848;6.776;2023-04-09T00:35:04;101404.19;;;10.29;68.63
72548;BME280;60570;50.848;6.776;2023-04-09T00:36:05;101414.19;;;10.30;69.07
72548;BME280;60570;50.848;6.776;2023-04-09T00:37:07;101410.91;;;10.28;68.96
72548;BME280;60570;50.848;6.776;2023-04-09T00:38:07;101408.13;;;10.28;69.01
72548;BME280;60570;50.848;6.776;2023-04-09T00:39:09;101409.25;;;10.27;68.57
72548;BME280;60570;50.848;6.776;2023-04-09T00:40:09;101409.25;;;10.27;68.77
72548;BME280;60570;50.848;6.776;2023-04-09T00:41:11;101408.13;;;10.28;68.88
72548;BME280;60570;50.848;6.776;2023-04-09T00:42:11;101404.84;;;10.26;68.59
72548;BME280;60570;50.848;6.776;2023-04-09T00:43:13;101408.41;;;10.26;68.93
72548;BME280;60570;50.848;6.776;2023-04-09T00:44:13;101407.91;;;10.24;68.87
72548;BME280;60570;50.848;6.776;2023-04-09T00:45:15;101408.72;;;10.25;68.71
72548;BME280;60570;50.848;6.776;2023-04-09T00:46:15;101407.91;;;10.24;68.96
72548;BME280;60570;50.848;6.776;2023-04-09T00:47:17;101409.03;;;10.23;68.82
72548;BME280;60570;50.848;6.776;2023-04-09T00:48:18;101403.50;;;10.23;69.04
72548;BME280;60570;50.848;6.776;2023-04-09T00:49:20;101397.09;;;10.23;68.64
72548;BME280;60570;50.848;6.776;2023-04-09T00:50:21;101397.09;;;10.23;68.87
72548;BME280;60570;50.848;6.776;2023-04-09T00:51:23;101398.25;;;10.22;68.87
72548;BME280;60570;50.848;6.776;2023-04-09T00:52:23;101402.97;;;10.21;68.68
72548;BME280;60570;50.848;6.776;2023-04-09T00:53:25;101404.94;;;10.21;68.95
72548;BME280;60570;50.848;6.776;2023-04-09T00:54:26;101400.19;;;10.21;68.97
72548;BME280;60570;50.848;6.776;2023-04-09T00:55:27;101404.09;;;10.20;68.83
72548;BME280;60570;50.848;6.776;2023-04-09T00:56:28;101403.81;;;10.22;69.07
72548;BME280;60570;50.848;6.776;2023-04-09T00:57:30;101403.28;;;10.20;68.88
72548;BME280;60570;50.848;6.776;2023-04-09T00:58:30;101405.25;;;10.19;68.96
72548;BME280;60570;50.848;6.776;2023-04-09T00:59:32;101408.03;;;10.19;68.88
72548;BME280;60570;50.848;6.776;2023-04-09T01:00:32;101406.06;;;10.20;68.97
72548;BME280;60570;50.848;6.776;2023-04-09T01:01:34;101409.97;;;10.19;69.03
72548;BME280;60570;50.848;6.776;2023-04-09T01:02:34;101402.47;;;10.19;68.80
72548;BME280;60570;50.848;6.776;2023-04-09T01:03:36;101400.81;;;10.18;68.76
72548;BME280;60570;50.848;6.776;2023-04-09T01:04:39;101403.28;;;10.20;69.16
72548;BME280;60570;50.848;6.776;2023-04-09T01:05:43;101403.28;;;10.20;69.11
72548;BME280;60570;50.848;6.776;2023-04-09T01:06:48;101407.19;;;10.19;69.03
72548;BME280;60570;50.848;6.776;2023-04-09T01:07:53;101410.78;;;10.19;68.94
72548;BME280;60570;50.848;6.776;2023-04-09T01:09:01;101403.59;;;10.18;68.84
72548;BME280;60570;50.848;6.776;2023-04-09T01:10:04;101413.56;;;10.19;68.69
72548;BME280;60570;50.848;6.776;2023-04-09T01:11:12;101404.41;;;10.19;68.88
72548;BME280;60570;50.848;6.776;2023-04-09T01:12:17;101409.66;;;10.20;68.92
72548;BME280;60570;50.848;6.776;2023-04-09T01:13:22;101407.19;;;10.19;68.76
72548;BME280;60570;50.848;6.776;2023-04-09T01:14:29;101408.03;;;10.19;68.93
72548;BME280;60570;50.848;6.776;2023-04-09T01:15:32;101406.34;;;10.18;68.95
72548;BME280;60570;50.848;6.776;2023-04-09T01:16:35;101404.72;;;10.17;68.92
72548;BME280;60570;50.848;6.776;2023-04-09T01:17:39;101415.00;;;10.17;68.98
72548;BME280;60570;50.848;6.776;2023-04-09T01:18:43;101400.00;;;10.18;68.65
72548;BME280;60570;50.848;6.776;2023-04-09T01:19:47;101397.50;;;10.16;69.11
72548;BME280;60570;50.848;6.776;2023-04-09T01:20:54;101399.19;;;10.17;68.67
72548;BME280;60570;50.848;6.776;2023-04-09T01:21:56;101399.50;;;10.16;69.08
72548;BME280;60570;50.848;6.776;2023-04-09T01:22:59;101410.28;;;10.17;68.90
72548;BME280;60570;50.848;6.776;2023-04-09T01:24:03;101405.84;;;10.16;68.87
72548;BME280;60570;50.848;6.776;2023-04-09T01:25:12;101405.84;;;10.16;68.66
72548;BME280;60570;50.848;6.776;2023-04-09T01:26:20;101403.91;;;10.17;68.64
72548;BME280;60570;50.848;6.776;2023-04-09T01:27:24;101399.50;;;10.16;68.84
72548;BME280;60570;50.848;6.776;2023-04-09T01:28:34;101407.00;;;10.15;68.86
72548;BME280;60570;50.848;6.776;2023-04-09T01:29:38;101397.50;;;10.16;69.07
72548;BME280;60570;50.848;6.776;2023-04-09T01:30:40;101399.50;;;10.16;68.91
72548;BME280;60570;50.848;6.776;2023-04-09T01:31:43;101404.22;;;10.15;68.84
72548;BME280;60570;50.848;6.776;2023-04-09T01:32:44;101401.75;;;10.14;69.11
72548;BME280;60570;50.848;6.776;2023-04-09T01:33:46;101409.25;;;10.13;68.73
72548;BME280;60570;50.848;6.776;2023-04-09T01:34:47;101404.03;;;10.12;68.90
72548;BME280;60570;50.848;6.776;2023-04-09T01:35:49;101404.03;;;10.12;69.03
72548;BME280;60570;50.848;6.776;2023-04-09T01:36:52;101406.47;;;10.13;68.73
72548;BME280;60570;50.848;6.776;2023-04-09T01:37:55;101405.97;;;10.11;69.04
72548;BME280;60570;50.848;6.776;2023-04-09T01:38:56;101402.38;;;10.11;68.87
72548;BME280;60570;50.848;6.776;2023-04-09T01:39:58;101409.56;;;10.12;68.74
72548;BME280;60570;50.848;6.776;2023-04-09T01:40:58;101402.06;;;10.12;68.89
72548;BME280;60570;50.848;6.776;2023-04-09T01:42:00;101405.66;;;10.13;69.04
72548;BME280;60570;50.848;6.776;2023-04-09T01:43:03;101406.81;;;10.12;68.75
72548;BME280;60570;50.848;6.776;2023-04-09T01:44:08;101405.97;;;10.11;68.76
72548;BME280;60570;50.848;6.776;2023-04-09T01:45:09;101408.75;;;10.11;69.20
72548;BME280;60570;50.848;6.776;2023-04-09T01:46:12;101411.53;;;10.11;68.88
72548;BME280;60570;50.848;6.776;2023-04-09T01:47:13;101402.38;;;10.11;69.16
72548;BME280;60570;50.848;6.776;2023-04-09T01:48:14;101409.91;;;10.10;68.72
72548;BME280;60570;50.848;6.776;2023-04-09T01:49:16;101409.06;;;10.10;68.97
72548;BME280;60570;50.848;6.776;2023-04-09T01:50:18;101402.97;;;10.08;68.77
72548;BME280;60570;50.848;6.776;2023-04-09T01:51:18;101403.78;;;10.08;68.88
72548;BME280;60570;50.848;6.776;2023-04-09T01:52:20;101401.31;;;10.07;69.14
72548;BME280;60570;50.848;6.776;2023-04-09T01:53:20;101395.75;;;10.07;68.88
72548;BME280;60570;50.848;6.776;2023-04-09T01:54:22;101398.53;;;10.07;69.04
72548;BME280;60570;50.848;6.776;2023-04-09T01:55:23;101394.97;;;10.06;68.97
72548;BME280;60570;50.848;6.776;2023-04-09T01:56:24;101398.25;;;10.08;68.77
72548;BME280;60570;50.848;6.776;2023-04-09T01:57:26;101392.97;;;10.07;68.77
72548;BME280;60570;50.848;6.776;2023-04-09T01:58:26;101396.91;;;10.06;68.90
72548;BME280;60570;50.848;6.776;2023-04-09T01:59:29;101387.75;;;10.05;69.16
72548;BME280;60570;50.848;6.776;2023-04-09T02:00:30;101394.44;;;10.04;69.23
72548;BME280;60570;50.848;6.776;2023-04-09T02:01:36;101398.84;;;10.05;68.93
72548;BME280;60570;50.848;6.776;2023-04-09T02:02:39;101400.00;;;10.04;68.95
72548;BME280;60570;50.848;6.776;2023-04-09T02:03:43;101396.72;;;10.02;68.87
72548;BME280;60570;50.848;6.776;2023-04-09T02:04:45;101393.09;;;10.02;69.13
72548;BME280;60570;50.848;6.776;2023-04-09T02:05:49;101396.72;;;10.02;69.25
72548;BME280;60570;50.848;6.776;2023-04-09T02:06:52;101394.25;;;10.01;68.96
72548;BME280;60570;50.848;6.776;2023-04-09T02:07:58;101395.03;;;10.01;69.13
72548;BME280;60570;50.848;6.776;2023-04-09T02:09:00;101397.81;;;10.01;69.11
72548;BME280;60570;50.848;6.776;2023-04-09T02:10:05;101390.66;;;10.00;68.91
72548;BME280;60570;50.848;6.776;2023-04-09T02:11:06;101392.59;;;10.00;69.09
72548;BME280;60570;50.848;6.776;2023-04-09T02:12:11;101395.38;;;10.00;69.15
72548;BME280;60570;50.848;6.776;2023-04-09T02:13:12;101397.03;;;10.01;69.15
72548;BME280;60570;50.848;6.776;2023-04-09T02:14:16;101393.09;;;10.02;68.79
72548;BME280;60570;50.848;6.776;2023-04-09T02:15:19;101395.38;;;10.00;68.96
72548;BME280;60570;50.848;6.776;2023-04-09T02:16:21;101397.31;;;9.99;69.10
72548;BME280;60570;50.848;6.776;2023-04-09T02:17:22;101393.72;;;9.99;69.19
72548;BME280;60570;50.848;6.776;2023-04-09T02:18:24;101390.97;;;9.99;68.94
72548;BME280;60570;50.848;6.776;2023-04-09T02:19:36;101391.25;;;9.97;69.03
72548;BME280;60570;50.848;6.776;2023-04-09T02:20:38;101390.13;;;9.98;69.05
72548;BME280;60570;50.848;6.776;2023-04-09T02:21:39;101392.91;;;9.98;69.21
72548;BME280;60570;50.848;6.776;2023-04-09T02:22:40;101392.06;;;9.98;68.89
72548;BME280;60570;50.848;6.776;2023-04-09T02:23:40;101394.84;;;9.98;69.31
72548;BME280;60570;50.848;6.776;2023-04-09T02:24:42;101387.66;;;9.97;68.91
72548;BME280;60570;50.848;6.776;2023-04-09T02:25:43;101385.69;;;9.97;69.03
72548;BME280;60570;50.848;6.776;2023-04-09T02:26:44;101384.06;;;9.96;69.09
72548;BME280;60570;50.848;6.776;2023-04-09T02:27:45;101388.78;;;9.95;69.19
72548;BME280;60570;50.848;6.776;2023-04-09T02:28:46;101387.94;;;9.95;69.05
72548;BME280;60570;50.848;6.776;2023-04-09T02:29:47;101384.38;;;9.94;69.39
72548;BME280;60570;50.848;6.776;2023-04-09T02:30:49;101387.94;;;9.95;68.94
72548;BME280;60570;50.848;6.776;2023-04-09T02:31:50;101389.09;;;9.94;69.38
72548;BME280;60570;50.848;6.776;2023-04-09T02:32:52;101392.72;;;9.94;69.06
72548;BME280;60570;50.848;6.776;2023-04-09T02:33:53;101385.50;;;9.93;69.37
72548;BME280;60570;50.848;6.776;2023-04-09T02:34:54;101382.22;;;9.91;69.07
72548;BME280;60570;50.848;6.776;2023-04-09T02:35:54;101383.88;;;9.92;69.27
72548;BME280;60570;50.848;6.776;2023-04-09T02:36:56;101384.16;;;9.91;69.16
72548;BME280;60570;50.848;6.776;2023-04-09T02:37:56;101390.22;;;9.93;69.22
72548;BME280;60570;50.848;6.776;2023-04-09T02:38:58;101385.81;;;9.92;69.12
72548;BME280;60570;50.848;6.776;2023-04-09T02:39:58;101388.06;;;9.90;69.42
72548;BME280;60570;50.848;6.776;2023-04-09T02:41:00;101380.59;;;9.90;69.15
72548;BME280;60570;50.848;6.776;2023-04-09T02:42:00;101382.53;;;9.90;69.16
72548;BME280;60570;50.848;6.776;2023-04-09T02:43:02;101382.53;;;9.90;69.00
72548;BME280;60570;50.848;6.776;2023-04-09T02:44:02;101379.75;;;9.90;69.37
72548;BME280;60570;50.848;6.776;2023-04-09T02:45:04;101383.63;;;9.89;69.21
72548;BME280;60570;50.848;6.776;2023-04-09T02:46:06;101386.13;;;9.90;69.05
72548;BME280;60570;50.848;6.776;2023-04-09T02:47:08;101380.06;;;9.88;69.09
72548;BME280;60570;50.848;6.776;2023-04-09T02:48:09;101372.84;;;9.87;68.89
72548;BME280;60570;50.848;6.776;2023-04-09T02:49:10;101374.53;;;9.88;69.12
72548;BME280;60570;50.848;6.776;2023-04-09T02:50:10;101372.53;;;9.89;69.12
72548;BME280;60570;50.848;6.776;2023-04-09T02:51:12;101377.28;;;9.88;68.97
72548;BME280;60570;50.848;6.776;2023-04-09T02:52:12;101370.09;;;9.87;69.16
72548;BME280;60570;50.848;6.776;2023-04-09T02:53:14;101378.41;;;9.87;69.06
72548;BME280;60570;50.848;6.776;2023-04-09T02:54:14;101369.56;;;9.85;69.33
72548;BME280;60570;50.848;6.776;2023-04-09T02:55:16;101378.72;;;9.86;69.05
72548;BME280;60570;50.848;6.776;2023-04-09T02:56:17;101377.09;;;9.85;69.12
72548;BME280;60570;50.848;6.776;2023-04-09T02:57:18;101376.25;;;9.84;69.02
72548;BME280;60570;50.848;6.776;2023-04-09T02:58:19;101372.34;;;9.85;69.14
72548;BME280;60570;50.848;6.776;2023-04-09T02:59:20;101367.94;;;9.84;69.25
72548;BME280;60570;50.848;6.776;2023-04-09T03:00:21;101366.00;;;9.85;69.06
72548;BME280;60570;50.848;6.776;2023-04-09T03:01:24;101366.28;;;9.83;69.28
72548;BME280;60570;50.848;6.776;2023-04-09T03:02:24;101364.34;;;9.84;68.86
72548;BME280;60570;50.848;6.776;2023-04-09T03:03:26;101364.34;;;9.84;69.10
72548;BME280;60570;50.848;6.776;2023-04-09T03:04:26;101376.25;;;9.84;68.96
72548;BME280;60570;50.848;6.776;2023-04-09T03:05:28;101369.06;;;9.83;69.04
72548;BME280;60570;50.848;6.776;2023-04-09T03:06:28;101369.38;;;9.82;68.98
72548;BME280;60570;50.848;6.776;2023-04-09T03:07:30;101372.97;;;9.82;69.27
72548;BME280;60570;50.848;6.776;2023-04-09T03:08:30;101366.59;;;9.82;68.86
72548;BME280;60570;50.848;6.776;2023-04-09T03:09:32;101363.00;;;9.81;68.83
72548;BME280;60570;50.848;6.776;2023-04-09T03:10:32;101364.97;;;9.81;69.10
72548;BME280;60570;50.848;6.776;2023-04-09T03:11:33;101357.75;;;9.80;69.04
72548;BME280;60570;50.848;6.776;2023-04-09T03:12:34;101366.91;;;9.80;69.17
72548;BME280;60570;50.848;6.776;2023-04-09T03:13:35;101360.84;;;9.78;68.87
72548;BME280;60570;50.848;6.776;2023-04-09T03:14:36;101365.25;;;9.79;69.34
72548;BME280;60570;50.848;6.776;2023-04-09T03:15:37;101353.34;;;9.79;69.05
72548;BME280;60570;50.848;6.776;2023-04-09T03:16:39;101358.91;;;9.79;69.11
72548;BME280;60570;50.848;6.776;2023-04-09T03:17:41;101361.97;;;9.77;69.14
72548;BME280;60570;50.848;6.776;2023-04-09T03:18:41;101363.09;;;9.76;69.03
72548;BME280;60570;50.848;6.776;2023-04-09T03:19:43;101359.19;;;9.77;69.19
72548;BME280;60570;50.848;6.776;2023-04-09T03:20:43;101362.78;;;9.78;69.23
72548;BME280;60570;50.848;6.776;2023-04-09T03:21:44;101350.34;;;9.75;68.86
72548;BME280;60570;50.848;6.776;2023-04-09T03:22:45;101353.97;;;9.76;69.18
72548;BME280;60570;50.848;6.776;2023-04-09T03:23:47;101355.91;;;9.75;69.15
72548;BME280;60570;50.848;6.776;2023-04-09T03:24:47;101357.56;;;9.76;68.94
72548;BME280;60570;50.848;6.776;2023-04-09T03:25:48;101354.28;;;9.74;68.92
72548;BME280;60570;50.848;6.776;2023-04-09T03:26:58;101357.03;;;9.74;68.96
72548;BME280;60570;50.848;6.776;2023-04-09T03:28:00;101365.38;;;9.74;69.04
72548;BME280;60570;50.848;6.776;2023-04-09T03:29:01;101358.16;;;9.73;69.04
72548;BME280;60570;50.848;6.776;2023-04-09T03:30:02;101355.38;;;9.73;69.12
72548;BME280;60570;50.848;6.776;2023-04-09T03:31:03;101358.47;;;9.72;69.17
72548;BME280;60570;50.848;6.776;2023-04-09T03:32:06;101353.44;;;9.74;68.85
72548;BME280;60570;50.848;6.776;2023-04-09T03:33:06;101352.63;;;9.73;68.86
72548;BME280;60570;50.848;6.776;2023-04-09T03:34:08;101355.38;;;9.73;68.75
72548;BME280;60570;50.848;6.776;2023-04-09T03:35:08;101354.59;;;9.73;68.90
72548;BME280;60570;50.848;6.776;2023-04-09T03:36:10;101354.91;;;9.71;68.78
72548;BME280;60570;50.848;6.776;2023-04-09T03:37:11;101358.78;;;9.70;68.99
72548;BME280;60570;50.848;6.776;2023-04-09T03:38:12;101354.06;;;9.71;69.14
72548;BME280;60570;50.848;6.776;2023-04-09T03:39:13;101350.47;;;9.70;68.76
72548;BME280;60570;50.848;6.776;2023-04-09T03:40:13;101350.78;;;9.69;68.99
72548;BME280;60570;50.848;6.776;2023-04-09T03:41:15;101351.91;;;9.68;68.99
72548;BME280;60570;50.848;6.776;2023-04-09T03:42:16;101349.44;;;9.66;68.98
72548;BME280;60570;50.848;6.776;2023-04-09T03:43:17;101351.91;;;9.68;68.87
72548;BME280;60570;50.848;6.776;2023-04-09T03:44:18;101349.44;;;9.66;69.08
72548;BME280;60570;50.848;6.776;2023-04-09T03:45:19;101351.38;;;9.66;68.97
72548;BME280;60570;50.848;6.776;2023-04-09T03:46:20;101352.53;;;9.65;68.76
72548;BME280;60570;50.848;6.776;2023-04-09T03:47:22;101345.31;;;9.64;68.94
72548;BME280;60570;50.848;6.776;2023-04-09T03:48:24;101349.75;;;9.65;68.85
72548;BME280;60570;50.848;6.776;2023-04-09T03:49:24;101348.94;;;9.64;68.67
72548;BME280;60570;50.848;6.776;2023-04-09T03:50:26;101343.38;;;9.64;68.88
72548;BME280;60570;50.848;6.776;2023-04-09T03:51:26;101344.81;;;9.62;68.67
72548;BME280;60570;50.848;6.776;2023-04-09T03:52:28;101348.94;;;9.64;68.95
72548;BME280;60570;50.848;6.776;2023-04-09T03:53:28;101347.31;;;9.63;68.79
72548;BME280;60570;50.848;6.776;2023-04-09T03:54:30;101342.88;;;9.62;68.73
72548;BME280;60570;50.848;6.776;2023-04-09T03:55:31;101349.56;;;9.61;68.93
72548;BME280;60570;50.848;6.776;2023-04-09T03:56:32;101341.53;;;9.60;68.77
72548;BME280;60570;50.848;6.776;2023-04-09T03:57:32;101351.50;;;9.61;68.89
72548;BME280;60570;50.848;6.776;2023-04-09T03:58:34;101352.63;;;9.60;68.86
72548;BME280;60570;50.848;6.776;2023-04-09T03:59:35;101341.53;;;9.60;69.03
72548;BME280;60570;50.848;6.776;2023-04-09T04:00:36;101349.84;;;9.60;69.04
72548;BME280;60570;50.848;6.776;2023-04-09T04:01:37;101348.22;;;9.59;68.62
72548;BME280;60570;50.848;6.776;2023-04-09T04:02:39;101347.38;;;9.58;68.93
72548;BME280;60570;50.848;6.776;2023-04-09T04:03:40;101349.34;;;9.58;68.86
72548;BME280;60570;50.848;6.776;2023-04-09T04:04:41;101349.34;;;9.58;68.92
72548;BME280;60570;50.848;6.776;2023-04-09T04:05:42;101348.53;;;9.57;69.00
72548;BME280;60570;50.848;6.776;2023-04-09T04:06:43;101347.69;;;9.57;69.03
72548;BME280;60570;50.848;6.776;2023-04-09T04:07:44;101344.94;;;9.57;68.60
72548;BME280;60570;50.848;6.776;2023-04-09T04:08:45;101344.94;;;9.57;68.60
72548;BME280;60570;50.848;6.776;2023-04-09T04:09:46;101344.09;;;9.56;68.58
72548;BME280;60570;50.848;6.776;2023-04-09T04:10:47;101344.09;;;9.56;68.63
72548;BME280;60570;50.848;6.776;2023-04-09T04:11:47;101343.59;;;9.54;68.53
72548;BME280;60570;50.848;6.776;2023-04-09T04:12:49;101343.59;;;9.54;68.57
72548;BME280;60570;50.848;6.776;2023-04-09T04:13:49;101344.72;;;9.53;68.66
72548;BME280;60570;50.848;6.776;2023-04-09T04:14:51;101343.06;;;9.52;68.93
72548;BME280;60570;50.848;6.776;2023-04-09T04:15:51;101345.84;;;9.52;68.77
72548;BME280;60570;50.848;6.776;2023-04-09T04:16:53;101348.63;;;9.52;68.55
72548;BME280;60570;50.848;6.776;2023-04-09T04:17:55;101353.38;;;9.52;68.58
72548;BME280;60570;50.848;6.776;2023-04-09T04:18:56;101350.59;;;9.52;68.56
72548;BME280;60570;50.848;6.776;2023-04-09T04:19:57;101350.59;;;9.52;68.76
72548;BME280;60570;50.848;6.776;2023-04-09T04:20:58;101347.31;;;9.50;68.51
72548;BME280;60570;50.848;6.776;2023-04-09T04:21:59;101344.53;;;9.50;68.79
72548;BME280;60570;50.848;6.776;2023-04-09T04:23:00;101349.25;;;9.49;68.67
72548;BME280;60570;50.848;6.776;2023-04-09T04:24:00;101342.88;;;9.49;68.62
72548;BME280;60570;50.848;6.776;2023-04-09T04:25:02;101342.03;;;9.48;68.73
72548;BME280;60570;50.848;6.776;2023-04-09T04:26:05;101339.56;;;9.47;68.84
72548;BME280;60570;50.848;6.776;2023-04-09T04:27:09;101342.88;;;9.49;68.67
72548;BME280;60570;50.848;6.776;2023-04-09T04:28:09;101343.19;;;9.47;68.63
72548;BME280;60570;50.848;6.776;2023-04-09T04:29:11;101346.78;;;9.48;68.65
72548;BME280;60570;50.848;6.776;2023-04-09T04:30:11;101345.13;;;9.47;68.38
72548;BME280;60570;50.848;6.776;2023-04-09T04:31:13;101351.50;;;9.47;68.76
72548;BME280;60570;50.848;6.776;2023-04-09T04:32:13;101344.28;;;9.46;68.78
72548;BME280;60570;50.848;6.776;2023-04-09T04:33:16;101348.72;;;9.47;68.64
72548;BME280;60570;50.848;6.776;2023-04-09T04:34:16;101343.50;;;9.46;68.42
72548;BME280;60570;50.848;6.776;2023-04-09T04:35:18;101351.81;;;9.46;68.45
72548;BME280;60570;50.848;6.776;2023-04-09T04:36:20;101350.47;;;9.43;68.31
72548;BME280;60570;50.848;6.776;2023-04-09T04:37:22;101350.78;;;9.42;68.61
72548;BME280;60570;50.848;6.776;2023-04-09T04:38:22;101347.19;;;9.41;68.53
72548;BME280;60570;50.848;6.776;2023-04-09T04:39:24;101348.00;;;9.42;68.47
72548;BME280;60570;50.848;6.776;2023-04-09T04:40:24;101352.72;;;9.41;68.46
72548;BME280;60570;50.848;6.776;2023-04-09T04:41:26;101348.31;;;9.40;68.46
72548;BME280;60570;50.848;6.776;2023-04-09T04:42:26;101348.59;;;9.39;68.70
72548;BME280;60570;50.848;6.776;2023-04-09T04:43:29;101352.53;;;9.38;68.67
72548;BME280;60570;50.848;6.776;2023-04-09T04:44:30;101354.97;;;9.39;68.54
72548;BME280;60570;50.848;6.776;2023-04-09T04:45:31;101346.66;;;9.39;68.61
72548;BME280;60570;50.848;6.776;2023-04-09T04:46:32;101349.75;;;9.38;68.47
72548;BME280;60570;50.848;6.776;2023-04-09T04:47:33;101350.59;;;9.38;68.53
72548;BME280;60570;50.848;6.776;2023-04-09T04:48:35;101342.53;;;9.37;68.35
72548;BME280;60570;50.848;6.776;2023-04-09T04:49:37;101347.28;;;9.36;68.42
72548;BME280;60570;50.848;6.776;2023-04-09T04:50:37;101341.44;;;9.38;68.40
72548;BME280;60570;50.848;6.776;2023-04-09T04:51:39;101347.81;;;9.38;68.34
72548;BME280;60570;50.848;6.776;2023-04-09T04:52:39;101342.53;;;9.37;68.25
72548;BME280;60570;50.848;6.776;2023-04-09T04:53:41;101346.16;;;9.37;68.46
72548;BME280;60570;50.848;6.776;2023-04-09T04:54:41;101344.53;;;9.36;68.57
72548;BME280;60570;50.848;6.776;2023-04-09T04:55:42;101345.63;;;9.35;68.39
72548;BME280;60570;50.848;6.776;2023-04-09T04:56:44;101346.78;;;9.34;68.33
72548;BME280;60570;50.848;6.776;2023-04-09T04:57:44;101346.47;;;9.36;68.35
72548;BME280;60570;50.848;6.776;2023-04-09T04:58:46;101354.78;;;9.36;68.58
72548;BME280;60570;50.848;6.776;2023-04-09T04:59:46;101350.34;;;9.35;68.53
72548;BME280;60570;50.848;6.776;2023-04-09T05:00:48;101351.50;;;9.34;68.47
72548;BME280;60570;50.848;6.776;2023-04-09T05:01:48;101355.09;;;9.34;68.57
72548;BME280;60570;50.848;6.776;2023-04-09T05:02:50;101348.72;;;9.34;68.57
72548;BME280;60570;50.848;6.776;2023-04-09T05:03:52;101353.44;;;9.33;68.50
72548;BME280;60570;50.848;6.776;2023-04-09T05:04:53;101347.88;;;9.33;68.49
72548;BME280;60570;50.848;6.776;2023-04-09T05:05:54;101353.44;;;9.33;68.18
72548;BME280;60570;50.848;6.776;2023-04-09T05:06:55;101353.44;;;9.33;68.62
72548;BME280;60570;50.848;6.776;2023-04-09T05:07:56;101360.13;;;9.32;68.54
72548;BME280;60570;50.848;6.776;2023-04-09T05:08:57;101351.81;;;9.32;68.17
72548;BME280;60570;50.848;6.776;2023-04-09T05:09:57;101357.03;;;9.34;68.46
72548;BME280;60570;50.848;6.776;2023-04-09T05:10:59;101354.25;;;9.34;68.20
72548;BME280;60570;50.848;6.776;2023-04-09T05:11:59;101358.47;;;9.31;68.41
72548;BME280;60570;50.848;6.776;2023-04-09T05:13:01;101359.28;;;9.32;68.05
72548;BME280;60570;50.848;6.776;2023-04-09T05:14:02;101353.75;;;9.32;68.34
72548;BME280;60570;50.848;6.776;2023-04-09T05:15:04;101357.63;;;9.31;68.28
72548;BME280;60570;50.848;6.776;2023-04-09T05:16:05;101362.06;;;9.32;68.36
72548;BME280;60570;50.848;6.776;2023-04-09T05:17:06;101352.09;;;9.31;68.21
72548;BME280;60570;50.848;6.776;2023-04-09T05:18:07;101361.53;;;9.30;68.11
72548;BME280;60570;50.848;6.776;2023-04-09T05:19:10;101363.81;;;9.28;68.26
72548;BME280;60570;50.848;6.776;2023-04-09T05:20:11;101357.16;;;9.29;68.27
72548;BME280;60570;50.848;6.776;2023-04-09T05:21:12;101354.66;;;9.27;68.54
72548;BME280;60570;50.848;6.776;2023-04-09T05:22:13;101359.09;;;9.28;68.35
72548;BME280;60570;50.848;6.776;2023-04-09T05:23:14;101362.97;;;9.27;68.38
72548;BME280;60570;50.848;6.776;2023-04-09T05:24:14;101361.66;;;9.25;68.13